Terminal Aerodrome Forecast
Issued by NWS

Current Version | Previous Version | Text Only | Print | Product List | Glossary Off
Versions: 1 2 3 4 5 6 7 8 9 10 11 12 13 14 15

000
FTUS41 KILN 092049 AAA
TAFLCK
TAF AMD
KLCK 092049Z 0921/1018 26009KT 1SM -SN BKN011 OVC018
     FM092300 27010G18KT 2SM -SHSN OVC015
     FM100200 27012G22KT P6SM VCSH OVC015
     FM100600 28010G20KT P6SM BKN022
     FM101000 28010KT P6SM BKN022
     FM101300 25008KT P6SM SCT025 BKN200
     FM101600 24012KT P6SM BKN080=

USA.gov is the U.S. government's official web portal to all federal, state and local government web resources and services.